createdAt,value
2022-12-18T00:00:08.482Z,51.33
2022-12-18T00:02:36.606Z,51.80
2022-12-18T00:05:04.720Z,57.05
2022-12-18T00:07:32.614Z,54.88
2022-12-18T00:10:00.638Z,60.63
2022-12-18T00:12:29.997Z,61.75
2022-12-18T00:14:59.629Z,62.92
2022-12-18T00:17:27.597Z,53.78
2022-12-18T00:19:55.535Z,49.80
2022-12-18T00:22:23.475Z,44.60
2022-12-18T00:24:51.384Z,44.30
2022-12-18T00:27:19.298Z,42.88
2022-12-18T00:29:47.182Z,42.58
2022-12-18T00:32:16.612Z,44.78
2022-12-18T00:34:44.750Z,43.42
2022-12-18T00:37:16.817Z,36.00
2022-12-18T00:42:32.719Z,37.55
2022-12-18T00:45:00.666Z,36.55
2022-12-18T00:47:29.895Z,35.40
2022-12-18T00:49:57.877Z,36.97
2022-12-18T00:52:25.773Z,37.25
2022-12-18T00:54:53.702Z,39.42
2022-12-18T00:57:21.689Z,36.10
2022-12-18T00:59:50.456Z,39.03
2022-12-18T01:02:18.734Z,35.63
2022-12-18T01:04:48.352Z,41.50
2022-12-18T01:07:16.550Z,39.08
2022-12-18T01:09:44.611Z,35.55
2022-12-18T01:12:12.555Z,38.13
2022-12-18T01:14:40.406Z,39.65
2022-12-18T01:17:08.332Z,36.65
2022-12-18T01:19:36.650Z,41.15
2022-12-18T01:22:08.664Z,37.28
2022-12-18T01:24:36.733Z,36.38
2022-12-18T01:27:04.853Z,45.92
2022-12-18T01:29:33.023Z,43.80
2022-12-18T01:32:01.173Z,41.92
2022-12-18T01:34:29.154Z,40.05
2022-12-18T01:36:57.052Z,41.13
2022-12-18T01:39:26.400Z,42.78
2022-12-18T01:42:06.401Z,41.63
2022-12-18T01:45:09.070Z,45.53
2022-12-18T01:47:43.658Z,40.95
2022-12-18T01:50:17.169Z,45.58
2022-12-18T01:52:48.701Z,39.70
2022-12-18T01:55:21.226Z,46.25
2022-12-18T01:57:50.063Z,47.03
2022-12-18T02:00:20.873Z,46.65
2022-12-18T02:02:50.039Z,43.47
2022-12-18T02:05:21.092Z,42.30
2022-12-18T02:08:00.629Z,38.75
2022-12-18T02:10:35.015Z,44.78
2022-12-18T02:13:11.600Z,45.97
2022-12-18T02:15:47.388Z,42.58
2022-12-18T02:18:21.985Z,40.28
2022-12-18T02:20:54.956Z,43.35
2022-12-18T02:23:40.706Z,37.55
2022-12-18T02:26:20.799Z,38.80
2022-12-18T02:28:54.111Z,39.05
2022-12-18T02:31:28.035Z,36.75
2022-12-18T02:33:58.720Z,39.58
2022-12-18T02:36:29.620Z,40.60
2022-12-18T02:38:59.995Z,37.13
2022-12-18T02:41:30.655Z,38.15
2022-12-18T02:44:02.566Z,37.03
2022-12-18T02:46:38.692Z,36.70
2022-12-18T02:49:22.936Z,36.75
2022-12-18T02:51:55.697Z,38.60
2022-12-18T02:54:38.340Z,35.60
2022-12-18T02:57:17.758Z,35.28
2022-12-18T02:59:55.476Z,39.97
2022-12-18T03:02:27.999Z,39.80
2022-12-18T03:05:03.297Z,40.10
2022-12-18T03:07:39.074Z,38.78
2022-12-18T03:10:10.872Z,41.53
2022-12-18T03:12:45.182Z,39.35
2022-12-18T03:15:20.304Z,41.65
2022-12-18T03:17:54.922Z,41.58
2022-12-18T03:20:25.629Z,42.60
2022-12-18T03:22:58.516Z,43.35
2022-12-18T03:25:29.587Z,41.70
2022-12-18T03:28:02.713Z,45.33
2022-12-18T03:30:33.726Z,44.25
2022-12-18T03:33:08.027Z,41.97
2022-12-18T03:35:39.751Z,44.55
2022-12-18T03:38:08.371Z,42.38
2022-12-18T03:40:46.635Z,41.45
2022-12-18T03:43:22.044Z,50.58
2022-12-18T03:45:56.658Z,48.28
2022-12-18T03:48:32.511Z,40.58
2022-12-18T03:51:04.372Z,42.72
2022-12-18T03:53:39.738Z,45.67
2022-12-18T03:56:09.525Z,41.22
2022-12-18T03:58:42.110Z,42.38
2022-12-18T04:01:14.499Z,41.85
2022-12-18T04:03:44.931Z,37.90
2022-12-18T04:06:14.021Z,38.78
2022-12-18T04:08:43.099Z,40.90
2022-12-18T04:11:11.315Z,43.58
2022-12-18T04:13:41.182Z,41.88
2022-12-18T04:16:10.396Z,45.53
2022-12-18T04:18:38.740Z,43.10
2022-12-18T04:21:07.400Z,42.35
2022-12-18T04:23:35.491Z,46.65
2022-12-18T04:26:03.391Z,44.65
2022-12-18T04:28:31.279Z,42.38
2022-12-18T04:31:00.602Z,41.05
2022-12-18T04:33:28.590Z,40.60
2022-12-18T04:35:56.567Z,36.63
2022-12-18T04:38:24.555Z,41.28
2022-12-18T04:40:52.439Z,43.28
2022-12-18T04:43:20.387Z,44.92
2022-12-18T04:45:48.370Z,40.22
2022-12-18T04:48:17.772Z,43.45
2022-12-18T04:50:45.651Z,43.90
2022-12-18T04:53:13.526Z,39.58
2022-12-18T04:55:41.553Z,44.40
2022-12-18T04:58:09.495Z,47.03
2022-12-18T05:00:37.697Z,41.97
2022-12-18T05:03:05.726Z,42.55
2022-12-18T05:05:37.072Z,41.40
2022-12-18T05:08:05.266Z,43.17
2022-12-18T05:10:37.937Z,48.15
2022-12-18T05:13:06.322Z,42.40
2022-12-18T05:15:35.258Z,42.17
2022-12-18T05:18:03.925Z,43.40
2022-12-18T05:20:32.168Z,37.95
2022-12-18T05:23:01.515Z,41.50
2022-12-18T05:25:29.701Z,43.03
2022-12-18T05:27:57.852Z,47.20
2022-12-18T05:30:26.035Z,46.17
2022-12-18T05:32:54.028Z,40.90
2022-12-18T05:35:22.740Z,42.55
2022-12-18T05:37:50.647Z,41.28
2022-12-18T05:40:20.042Z,44.15
2022-12-18T05:42:47.920Z,42.10
2022-12-18T05:45:15.831Z,40.58
2022-12-18T05:47:43.800Z,37.63
2022-12-18T05:50:11.817Z,42.03
2022-12-18T05:52:39.736Z,46.45
2022-12-18T05:55:08.002Z,49.72
2022-12-18T05:57:37.365Z,46.85
2022-12-18T06:00:06.178Z,49.15
2022-12-18T06:02:34.145Z,56.65
2022-12-18T06:05:02.142Z,54.97
2022-12-18T06:07:30.066Z,59.35
2022-12-18T06:09:57.930Z,56.30
2022-12-18T06:12:25.935Z,58.70
2022-12-18T06:14:55.202Z,56.47
2022-12-18T06:17:23.327Z,59.33
2022-12-18T06:19:51.248Z,55.45
2022-12-18T06:22:19.188Z,55.97
2022-12-18T06:24:47.115Z,56.63
2022-12-18T06:27:15.288Z,59.88
2022-12-18T06:29:43.185Z,53.20
2022-12-18T06:32:12.543Z,59.22
2022-12-18T06:34:40.577Z,63.30
2022-12-18T06:37:08.865Z,62.80
2022-12-18T06:39:36.845Z,57.17
2022-12-18T06:42:05.679Z,60.60
2022-12-18T06:44:33.764Z,65.55
2022-12-18T06:47:01.653Z,63.17
2022-12-18T06:49:30.969Z,70.38
2022-12-18T06:51:59.019Z,69.20
2022-12-18T06:54:26.985Z,64.03
2022-12-18T06:56:54.936Z,67.88
2022-12-18T06:59:22.900Z,71.75
2022-12-18T07:01:50.895Z,67.78
2022-12-18T07:04:18.997Z,69.53
2022-12-18T07:06:48.453Z,67.43
2022-12-18T07:09:16.465Z,70.75
2022-12-18T07:11:44.427Z,68.22
2022-12-18T07:14:12.429Z,67.28
2022-12-18T07:16:40.433Z,70.57
2022-12-18T07:19:08.699Z,67.53
2022-12-18T07:21:36.598Z,70.60
2022-12-18T07:24:06.977Z,64.00
2022-12-18T07:26:35.125Z,62.95
2022-12-18T07:29:03.117Z,63.63
2022-12-18T07:31:31.171Z,76.88
2022-12-18T07:33:59.327Z,74.78
2022-12-18T07:36:27.603Z,67.63
2022-12-18T07:38:55.782Z,69.15
2022-12-18T07:41:25.077Z,63.83
2022-12-18T07:43:53.280Z,70.47
2022-12-18T07:46:21.563Z,68.10
2022-12-18T07:48:50.454Z,69.53
2022-12-18T07:51:19.899Z,77.03
2022-12-18T07:53:49.537Z,66.43
2022-12-18T07:56:29.161Z,63.10
2022-12-18T07:58:59.711Z,65.22
2022-12-18T08:01:28.170Z,61.33
2022-12-18T08:03:56.418Z,64.10
2022-12-18T08:06:24.853Z,66.72
2022-12-18T08:08:54.500Z,63.55
2022-12-18T08:11:23.198Z,65.38
2022-12-18T08:13:51.117Z,65.93
2022-12-18T08:16:21.859Z,61.75
2022-12-18T08:18:50.785Z,62.90
2022-12-18T08:21:22.257Z,62.35
2022-12-18T08:23:51.678Z,64.07
2022-12-18T08:26:20.956Z,62.45
2022-12-18T08:28:49.890Z,63.88
2022-12-18T08:31:20.305Z,58.25
2022-12-18T08:33:51.581Z,61.50
2022-12-18T08:36:20.125Z,61.78
2022-12-18T08:38:48.590Z,57.60
2022-12-18T08:41:19.229Z,58.92
2022-12-18T08:44:04.852Z,62.30
2022-12-18T08:46:37.545Z,70.68
2022-12-18T08:49:05.801Z,51.83
2022-12-18T08:51:33.926Z,56.50
2022-12-18T08:54:02.359Z,56.90
2022-12-18T08:56:31.978Z,62.85
2022-12-18T08:59:00.114Z,57.20
2022-12-18T09:01:28.363Z,59.88
2022-12-18T09:03:57.714Z,57.47
2022-12-18T09:06:27.638Z,52.33
2022-12-18T09:08:55.612Z,54.90
2022-12-18T09:11:26.081Z,55.75
2022-12-18T09:13:55.650Z,59.13
2022-12-18T09:16:30.171Z,56.50
2022-12-18T09:19:01.733Z,57.75
2022-12-18T09:21:31.671Z,60.13
2022-12-18T09:24:01.468Z,58.85
2022-12-18T09:26:29.479Z,54.05
2022-12-18T09:28:57.458Z,62.53
2022-12-18T09:31:26.689Z,57.78
2022-12-18T09:33:56.642Z,60.40
2022-12-18T09:36:25.985Z,58.90
2022-12-18T09:38:54.182Z,55.22
2022-12-18T09:41:45.451Z,57.58
2022-12-18T09:44:20.545Z,56.65
2022-12-18T09:46:52.822Z,56.35
2022-12-18T09:49:24.691Z,60.15
2022-12-18T09:51:59.299Z,53.88
2022-12-18T09:54:34.795Z,55.00
2022-12-18T09:57:02.701Z,55.40
2022-12-18T09:59:36.413Z,60.28
2022-12-18T10:02:16.119Z,58.28
2022-12-18T10:04:44.575Z,60.85
2022-12-18T10:07:21.391Z,56.10
2022-12-18T10:09:57.565Z,56.28
2022-12-18T10:12:30.631Z,52.55
2022-12-18T10:15:04.940Z,50.65
2022-12-18T10:17:43.085Z,53.20
2022-12-18T10:20:17.823Z,52.88
2022-12-18T10:22:56.064Z,55.40
2022-12-18T10:25:27.587Z,55.05
2022-12-18T10:27:59.643Z,53.78
2022-12-18T10:30:28.527Z,58.53
2022-12-18T10:32:57.229Z,54.50
2022-12-18T10:35:27.789Z,55.08
2022-12-18T10:38:05.668Z,56.53
2022-12-18T10:40:34.387Z,55.42
2022-12-18T10:43:06.901Z,55.25
2022-12-18T10:45:34.940Z,50.28
2022-12-18T10:48:03.220Z,56.75
2022-12-18T10:51:01.723Z,54.95
2022-12-18T10:53:26.200Z,56.42
2022-12-18T10:55:56.121Z,58.70
2022-12-18T10:58:27.591Z,56.55
2022-12-18T11:01:07.589Z,56.38
2022-12-18T11:03:37.832Z,52.47
2022-12-18T11:06:08.458Z,57.45
2022-12-18T11:08:37.997Z,53.13
2022-12-18T11:11:10.060Z,53.95
2022-12-18T11:13:38.031Z,53.80
2022-12-18T11:16:06.280Z,54.25
2022-12-18T11:18:35.896Z,52.35
2022-12-18T11:21:09.388Z,51.65
2022-12-18T11:23:47.845Z,53.90
2022-12-18T11:26:16.016Z,55.83
2022-12-18T11:28:46.827Z,55.35
2022-12-18T11:31:28.541Z,53.53
2022-12-18T11:37:02.116Z,60.30
2022-12-18T11:39:39.643Z,56.22
2022-12-18T11:42:14.775Z,61.55
2022-12-18T11:44:48.994Z,65.43
2022-12-18T11:47:27.756Z,48.47
2022-12-18T11:49:58.389Z,48.47
2022-12-18T11:52:29.360Z,48.75
2022-12-18T11:55:03.253Z,51.58
2022-12-18T11:57:39.494Z,50.13
2022-12-18T12:00:16.008Z,49.70
2022-12-18T12:03:07.063Z,47.45
2022-12-18T12:05:52.170Z,54.25
2022-12-18T12:08:29.138Z,55.60
2022-12-18T12:11:08.395Z,56.40
2022-12-18T12:13:46.945Z,51.40
2022-12-18T12:16:20.876Z,55.05
2022-12-18T12:19:10.565Z,51.80
2022-12-18T12:21:42.826Z,55.42
2022-12-18T12:24:24.331Z,53.95
2022-12-18T12:27:03.376Z,51.85
2022-12-18T12:29:44.871Z,53.25
2022-12-18T12:32:28.394Z,50.30
2022-12-18T12:35:11.602Z,51.35
2022-12-18T12:37:53.852Z,51.75
2022-12-18T12:43:23.837Z,49.35
2022-12-18T12:45:56.028Z,47.65
2022-12-18T12:48:35.395Z,51.08
2022-12-18T12:51:09.332Z,45.08
2022-12-18T12:53:40.822Z,45.47
2022-12-18T12:56:15.474Z,48.28
2022-12-18T12:58:54.637Z,44.73
2022-12-18T13:01:31.167Z,48.65
2022-12-18T13:04:09.028Z,46.55
2022-12-18T13:06:46.361Z,38.53
2022-12-18T13:09:14.617Z,39.72
2022-12-18T13:12:02.108Z,41.28
2022-12-18T13:14:33.849Z,39.13
2022-12-18T13:17:31.885Z,39.10
2022-12-18T13:20:15.558Z,38.03
2022-12-18T13:22:47.842Z,36.03
2022-12-18T13:25:37.201Z,33.80
2022-12-18T13:28:11.202Z,33.05
2022-12-18T13:30:55.680Z,35.70
2022-12-18T13:36:37.419Z,34.78
2022-12-18T13:39:23.256Z,41.30
2022-12-18T13:41:56.549Z,35.00
2022-12-18T13:44:39.997Z,34.08
2022-12-18T13:47:30.165Z,31.20
2022-12-18T13:49:59.112Z,40.50
2022-12-18T13:52:30.379Z,43.50
2022-12-18T13:55:01.442Z,35.47
2022-12-18T13:57:31.239Z,27.38
2022-12-18T14:00:01.046Z,28.20
2022-12-18T14:02:31.184Z,28.10
2022-12-18T14:04:59.215Z,28.60
2022-12-18T14:07:31.433Z,28.10
2022-12-18T14:10:18.866Z,25.55
2022-12-18T14:13:03.064Z,27.55
2022-12-18T14:15:35.671Z,26.70
2022-12-18T14:18:21.082Z,25.65
2022-12-18T14:20:52.940Z,34.63
2022-12-18T14:23:31.006Z,27.65
2022-12-18T14:26:03.780Z,28.35
2022-12-18T14:28:33.781Z,28.65
2022-12-18T14:31:01.841Z,26.58
2022-12-18T14:33:31.208Z,30.27
2022-12-18T14:36:01.701Z,25.63
2022-12-18T14:38:32.043Z,26.33
2022-12-18T14:41:01.737Z,30.25
2022-12-18T14:43:31.515Z,30.90
2022-12-18T14:46:00.826Z,31.70
2022-12-18T14:48:39.409Z,35.95
2022-12-18T14:51:09.402Z,34.42
2022-12-18T14:53:40.857Z,32.45
2022-12-18T14:56:17.828Z,28.10
2022-12-18T14:58:50.668Z,30.67
2022-12-18T15:01:24.066Z,26.52
2022-12-18T15:03:54.035Z,33.70
2022-12-18T15:06:29.451Z,34.58
2022-12-18T15:08:57.428Z,39.13
2022-12-18T15:11:28.764Z,30.48
2022-12-18T15:13:57.005Z,27.45
2022-12-18T15:16:26.364Z,31.33
2022-12-18T15:18:55.831Z,28.50
2022-12-18T15:21:26.130Z,33.08
2022-12-18T15:23:55.281Z,33.83
2022-12-18T15:26:24.289Z,34.42
2022-12-18T15:28:56.104Z,34.53
2022-12-18T15:31:31.685Z,41.47
2022-12-18T15:34:13.649Z,32.03
2022-12-18T15:36:41.980Z,50.38
2022-12-18T15:39:13.424Z,36.67
2022-12-18T15:41:41.592Z,31.33
2022-12-18T15:44:23.989Z,46.55
2022-12-18T15:46:52.038Z,39.88
2022-12-18T15:49:21.686Z,35.83
2022-12-18T15:51:52.964Z,34.47
2022-12-18T15:54:41.588Z,38.45
2022-12-18T15:57:25.397Z,36.88
2022-12-18T15:59:55.130Z,39.80
2022-12-18T16:02:24.747Z,40.20
2022-12-18T16:04:55.089Z,38.08
2022-12-18T16:07:25.489Z,42.63
2022-12-18T16:09:55.853Z,36.92
2022-12-18T16:12:26.369Z,36.17
2022-12-18T16:14:54.504Z,33.72
2022-12-18T16:17:22.550Z,36.40
2022-12-18T16:19:50.568Z,37.17
2022-12-18T16:22:23.440Z,43.85
2022-12-18T16:24:52.328Z,49.80
2022-12-18T16:27:20.712Z,48.03
2022-12-18T16:29:48.721Z,51.55
2022-12-18T16:32:19.021Z,59.97
2022-12-18T16:34:47.134Z,42.20
2022-12-18T16:37:16.911Z,44.65
2022-12-18T16:39:46.297Z,68.63
2022-12-18T16:42:19.769Z,84.07
2022-12-18T16:44:48.936Z,76.05
2022-12-18T16:47:17.868Z,49.05
2022-12-18T16:49:46.472Z,46.65
2022-12-18T16:52:15.125Z,48.00
2022-12-18T16:54:43.097Z,59.72
2022-12-18T16:57:14.811Z,50.30
2022-12-18T16:59:42.875Z,36.47
2022-12-18T17:02:15.896Z,37.72
2022-12-18T17:04:45.625Z,37.72
2022-12-18T17:07:14.010Z,35.63
2022-12-18T17:09:42.416Z,36.72
2022-12-18T17:12:12.027Z,43.70
2022-12-18T17:14:40.196Z,56.47
2022-12-18T17:17:20.784Z,92.03
2022-12-18T17:19:50.082Z,65.30
2022-12-18T17:22:18.086Z,55.85
2022-12-18T17:24:46.116Z,72.22
2022-12-18T17:27:15.447Z,67.47
2022-12-18T17:29:47.822Z,74.18
2022-12-18T17:32:16.690Z,76.97
2022-12-18T17:34:44.761Z,66.03
2022-12-18T17:37:12.828Z,84.25
2022-12-18T17:39:41.158Z,113.05
2022-12-18T17:42:14.663Z,83.18
2022-12-18T17:44:44.921Z,67.10
2022-12-18T17:47:13.162Z,72.57
2022-12-18T17:49:41.338Z,87.95
2022-12-18T17:52:09.455Z,55.83
2022-12-18T17:54:39.913Z,56.25
2022-12-18T17:57:08.093Z,66.18
2022-12-18T17:59:36.153Z,73.85
2022-12-18T18:02:05.829Z,56.10
2022-12-18T18:04:34.620Z,65.65
2022-12-18T18:07:03.094Z,73.28
2022-12-18T18:09:31.164Z,77.00
2022-12-18T18:12:16.599Z,91.85
2022-12-18T18:14:44.857Z,94.53
2022-12-18T18:17:14.201Z,75.45
2022-12-18T18:19:43.508Z,68.43
2022-12-18T18:22:14.799Z,61.88
2022-12-18T18:24:43.790Z,62.65
2022-12-18T18:27:11.864Z,65.10
2022-12-18T18:29:40.701Z,89.97
2022-12-18T18:32:10.621Z,74.13
2022-12-18T18:34:41.120Z,62.42
2022-12-18T18:37:11.046Z,66.97
2022-12-18T18:39:39.451Z,70.80
2022-12-18T18:42:08.160Z,70.88
2022-12-18T18:44:36.440Z,69.18
2022-12-18T18:47:06.926Z,61.55
2022-12-18T18:49:37.548Z,58.33
2022-12-18T18:52:08.617Z,52.72
2022-12-18T18:54:36.688Z,48.72
2022-12-18T18:57:20.336Z,49.78
2022-12-18T18:59:49.081Z,59.75
2022-12-18T19:02:18.618Z,67.63
2022-12-18T19:04:47.154Z,58.10
2022-12-18T19:07:24.040Z,49.25
2022-12-18T19:10:04.756Z,66.03
2022-12-18T19:12:51.829Z,89.30
2022-12-18T19:15:19.947Z,79.47
2022-12-18T19:17:48.354Z,71.25
2022-12-18T19:20:18.294Z,76.80
2022-12-18T19:22:52.203Z,83.35
2022-12-18T19:25:38.535Z,72.18
2022-12-18T19:28:19.962Z,70.32
2022-12-18T19:30:50.861Z,74.63
2022-12-18T19:36:18.593Z,121.65
2022-12-18T19:38:48.196Z,214.30
2022-12-18T19:41:17.823Z,110.95
2022-12-18T19:43:47.400Z,118.38
2022-12-18T19:46:17.004Z,86.57
2022-12-18T19:48:45.841Z,68.82
2022-12-18T19:51:16.587Z,64.32
2022-12-18T19:53:45.039Z,58.17
2022-12-18T19:56:16.078Z,56.70
2022-12-18T19:58:45.147Z,64.90
2022-12-18T20:01:13.667Z,80.03
2022-12-18T20:03:46.959Z,70.80
2022-12-18T20:06:25.102Z,67.28
2022-12-18T20:08:57.626Z,61.65
2022-12-18T20:11:30.948Z,61.17
2022-12-18T20:14:03.179Z,59.63
2022-12-18T20:16:31.476Z,64.75
2022-12-18T20:18:59.810Z,70.65
2022-12-18T20:21:28.293Z,71.97
2022-12-18T20:23:56.779Z,86.72
2022-12-18T20:26:25.099Z,80.55
2022-12-18T20:28:55.671Z,78.95
2022-12-18T20:31:24.088Z,65.35
2022-12-18T20:33:54.377Z,67.80
2022-12-18T20:36:24.628Z,59.55
2022-12-18T20:38:58.234Z,68.47
2022-12-18T20:41:33.506Z,61.65
2022-12-18T20:44:21.364Z,61.03
2022-12-18T20:46:51.876Z,61.13
2022-12-18T20:49:19.902Z,85.72
2022-12-18T20:51:51.490Z,88.57
2022-12-18T20:54:19.397Z,81.72
2022-12-18T20:56:47.529Z,78.07
2022-12-18T20:59:17.643Z,67.32
2022-12-18T21:01:48.771Z,69.28
2022-12-18T21:04:18.230Z,73.70
2022-12-18T21:06:51.393Z,69.82
2022-12-18T21:09:20.435Z,76.88
2022-12-18T21:12:05.798Z,103.10
2022-12-18T21:17:03.023Z,125.00
2022-12-18T21:19:31.590Z,133.77
2022-12-18T21:21:59.868Z,105.53
2022-12-18T21:24:28.224Z,95.47
2022-12-18T21:27:00.552Z,99.30
2022-12-18T21:29:28.875Z,107.53
2022-12-18T21:31:58.588Z,108.65
2022-12-18T21:34:28.508Z,95.03
2022-12-18T21:36:57.724Z,96.30
2022-12-18T21:39:27.005Z,88.88
2022-12-18T21:42:13.051Z,87.13
2022-12-18T21:44:41.992Z,94.70
2022-12-18T21:47:21.696Z,90.47
2022-12-18T21:49:51.701Z,90.30
2022-12-18T21:52:19.997Z,90.53
2022-12-18T21:54:49.751Z,91.07
2022-12-18T21:57:18.688Z,93.68
2022-12-18T21:59:46.616Z,90.75
2022-12-18T22:02:17.253Z,87.95
2022-12-18T22:04:46.147Z,84.95
2022-12-18T22:07:15.376Z,86.40
2022-12-18T22:09:43.626Z,85.63
2022-12-18T22:12:13.689Z,82.03
2022-12-18T22:14:41.593Z,73.00
2022-12-18T22:17:11.110Z,76.45
2022-12-18T22:19:43.075Z,85.35
2022-12-18T22:22:11.683Z,83.15
2022-12-18T22:24:39.625Z,86.05
2022-12-18T22:27:07.673Z,85.05
2022-12-18T22:29:53.531Z,86.20
2022-12-18T22:35:06.804Z,83.85
2022-12-18T22:37:37.330Z,82.22
2022-12-18T22:40:07.378Z,69.15
2022-12-18T22:42:35.541Z,81.97
2022-12-18T22:45:03.564Z,69.97
2022-12-18T22:47:31.532Z,75.25
2022-12-18T22:50:00.840Z,75.65
2022-12-18T22:52:28.838Z,72.50
2022-12-18T22:54:56.785Z,74.47
2022-12-18T22:57:25.732Z,76.25
2022-12-18T22:59:53.615Z,78.75
2022-12-18T23:02:21.815Z,77.65
2022-12-18T23:04:49.902Z,81.38
2022-12-18T23:07:19.390Z,86.05
2022-12-18T23:09:47.856Z,88.65
2022-12-18T23:12:20.896Z,87.30
2022-12-18T23:14:49.026Z,95.95
2022-12-18T23:17:17.127Z,94.22
2022-12-18T23:19:48.970Z,94.78
2022-12-18T23:22:17.453Z,97.75
2022-12-18T23:24:47.543Z,100.47
2022-12-18T23:27:15.527Z,95.60
2022-12-18T23:29:43.447Z,93.70
2022-12-18T23:32:13.478Z,89.93
2022-12-18T23:34:41.537Z,94.88
2022-12-18T23:37:09.503Z,95.90
2022-12-18T23:39:37.337Z,97.75
2022-12-18T23:42:07.019Z,91.95
2022-12-18T23:44:35.123Z,87.65
2022-12-18T23:47:03.112Z,92.15
2022-12-18T23:49:31.150Z,96.07
2022-12-18T23:51:59.522Z,94.82
2022-12-18T23:54:33.581Z,98.80
2022-12-18T23:57:02.604Z,91.97
2022-12-18T23:59:32.121Z,94.85
